createdAt,value
2023-01-30T00:01:00.610Z,13.97
2023-01-30T00:03:28.262Z,14.13
2023-01-30T00:05:55.798Z,13.37
2023-01-30T00:08:23.301Z,12.80
2023-01-30T00:10:51.048Z,13.60
2023-01-30T00:13:18.546Z,13.50
2023-01-30T00:15:45.951Z,13.83
2023-01-30T00:18:13.431Z,14.57
2023-01-30T00:20:40.982Z,13.43
2023-01-30T00:23:08.342Z,13.77
2023-01-30T00:25:35.897Z,13.83
2023-01-30T00:28:03.630Z,13.67
2023-01-30T00:30:30.942Z,13.83
2023-01-30T00:32:59.106Z,10.60
2023-01-30T00:35:28.962Z,13.67
2023-01-30T00:37:57.412Z,13.77
2023-01-30T00:40:25.925Z,13.23
2023-01-30T00:46:03.159Z,14.07
2023-01-30T00:48:30.946Z,13.80
2023-01-30T00:50:58.638Z,15.53
2023-01-30T00:53:26.776Z,13.77
2023-01-30T00:55:54.469Z,14.13
2023-01-30T00:58:22.210Z,14.53
2023-01-30T01:00:50.061Z,13.47
2023-01-30T01:03:18.299Z,14.10
2023-01-30T01:05:45.944Z,13.30
2023-01-30T01:08:13.576Z,14.37
2023-01-30T01:10:41.093Z,14.53
2023-01-30T01:13:08.451Z,13.00
2023-01-30T01:15:36.203Z,14.30
2023-01-30T01:18:03.483Z,15.37
2023-01-30T01:20:30.855Z,15.00
2023-01-30T01:22:58.571Z,14.10
2023-01-30T01:25:26.108Z,14.47
2023-01-30T01:27:54.275Z,14.53
2023-01-30T01:30:21.731Z,13.70
2023-01-30T01:32:49.191Z,14.63
2023-01-30T01:35:17.028Z,15.03
2023-01-30T01:37:44.424Z,14.83
2023-01-30T01:40:34.911Z,15.73
2023-01-30T01:43:03.032Z,18.47
2023-01-30T01:45:30.382Z,14.30
2023-01-30T01:48:04.932Z,15.70
2023-01-30T01:50:44.586Z,17.70
2023-01-30T01:53:12.816Z,14.53
2023-01-30T01:55:40.200Z,14.60
2023-01-30T01:58:11.247Z,14.13
2023-01-30T02:00:38.832Z,13.90
2023-01-30T02:03:08.489Z,13.00
2023-01-30T02:05:38.126Z,13.80
2023-01-30T02:08:15.467Z,12.63
2023-01-30T02:11:33.803Z,15.57
2023-01-30T02:14:01.088Z,13.73
2023-01-30T02:16:28.542Z,14.33
2023-01-30T02:18:55.938Z,14.07
2023-01-30T02:21:44.766Z,17.07
2023-01-30T02:24:31.003Z,13.60
2023-01-30T02:27:07.403Z,15.40
2023-01-30T02:29:52.009Z,15.47
2023-01-30T02:32:28.214Z,13.10
2023-01-30T02:35:37.056Z,13.70
2023-01-30T02:38:25.044Z,13.87
2023-01-30T02:41:07.025Z,15.87
2023-01-30T02:43:47.195Z,14.30
2023-01-30T02:46:51.952Z,14.10
2023-01-30T02:49:31.255Z,13.37
2023-01-30T02:51:58.607Z,13.83
2023-01-30T02:54:25.981Z,13.47
2023-01-30T02:56:57.678Z,13.83
2023-01-30T02:59:42.306Z,14.17
2023-01-30T03:02:32.636Z,13.03
2023-01-30T03:05:07.855Z,12.43
2023-01-30T03:07:50.437Z,13.30
2023-01-30T03:10:20.254Z,12.47
2023-01-30T03:12:53.464Z,13.23
2023-01-30T03:15:34.421Z,12.37
2023-01-30T03:18:02.418Z,15.80
2023-01-30T03:20:29.520Z,12.40
2023-01-30T03:22:56.903Z,13.37
2023-01-30T03:25:27.026Z,13.20
2023-01-30T03:27:55.008Z,12.80
2023-01-30T03:30:23.633Z,14.80
2023-01-30T03:32:51.109Z,14.63
2023-01-30T03:35:18.713Z,12.13
2023-01-30T03:37:46.843Z,14.50
2023-01-30T03:40:15.219Z,13.23
2023-01-30T03:42:42.470Z,12.67
2023-01-30T03:45:11.259Z,13.87
2023-01-30T03:47:38.749Z,14.80
2023-01-30T03:50:06.434Z,15.17
2023-01-30T03:52:35.657Z,14.37
2023-01-30T03:55:03.725Z,11.90
2023-01-30T03:57:31.787Z,14.60
2023-01-30T03:59:59.423Z,14.67
2023-01-30T04:02:26.873Z,13.80
2023-01-30T04:04:54.364Z,15.30
2023-01-30T04:07:21.779Z,14.67
2023-01-30T04:09:49.174Z,13.53
2023-01-30T04:12:16.556Z,13.30
2023-01-30T04:14:44.014Z,13.93
2023-01-30T04:17:11.500Z,13.63
2023-01-30T04:19:38.929Z,15.37
2023-01-30T04:22:06.298Z,14.37
2023-01-30T04:24:33.736Z,14.20
2023-01-30T04:27:01.159Z,13.90
2023-01-30T04:29:28.283Z,13.07
2023-01-30T04:31:55.888Z,11.13
2023-01-30T04:34:23.107Z,12.87
2023-01-30T04:36:50.440Z,14.37
2023-01-30T04:39:20.007Z,13.60
2023-01-30T04:41:48.608Z,13.70
2023-01-30T04:44:15.750Z,12.27
2023-01-30T04:46:43.245Z,12.43
2023-01-30T04:49:11.249Z,12.93
2023-01-30T04:51:38.734Z,12.73
2023-01-30T04:54:07.066Z,10.83
2023-01-30T04:56:34.713Z,13.97
2023-01-30T04:59:02.160Z,13.20
2023-01-30T05:01:37.371Z,12.67
2023-01-30T05:04:05.445Z,12.70
2023-01-30T05:06:33.395Z,13.60
2023-01-30T05:09:01.103Z,13.53
2023-01-30T05:11:29.259Z,14.53
2023-01-30T05:13:56.632Z,14.83
2023-01-30T05:16:24.056Z,12.63
2023-01-30T05:18:51.477Z,11.13
2023-01-30T05:21:20.624Z,9.50
2023-01-30T05:23:48.214Z,14.83
2023-01-30T05:26:15.872Z,14.30
2023-01-30T05:28:43.473Z,15.60
2023-01-30T05:31:12.559Z,14.40
2023-01-30T05:33:40.340Z,13.53
2023-01-30T05:36:08.177Z,13.97
2023-01-30T05:38:35.675Z,14.13
2023-01-30T05:41:07.234Z,13.37
2023-01-30T05:43:35.847Z,14.50
2023-01-30T05:46:04.652Z,14.27
2023-01-30T05:48:32.172Z,14.47
2023-01-30T05:51:00.244Z,14.77
2023-01-30T05:53:29.061Z,16.60
2023-01-30T05:55:57.499Z,15.93
2023-01-30T05:58:24.961Z,14.40
2023-01-30T06:00:52.225Z,14.83
2023-01-30T06:03:19.535Z,16.67
2023-01-30T06:05:46.849Z,13.30
2023-01-30T06:08:14.305Z,14.40
2023-01-30T06:10:41.936Z,15.43
2023-01-30T06:13:11.416Z,13.23
2023-01-30T06:15:39.440Z,13.90
2023-01-30T06:18:06.745Z,14.30
2023-01-30T06:20:34.131Z,16.90
2023-01-30T06:23:01.397Z,16.40
2023-01-30T06:25:28.734Z,13.60
2023-01-30T06:27:56.314Z,15.37
2023-01-30T06:30:24.185Z,17.00
2023-01-30T06:32:52.009Z,16.63
2023-01-30T06:35:19.788Z,17.57
2023-01-30T06:37:47.355Z,17.50
2023-01-30T06:40:14.829Z,15.97
2023-01-30T06:42:46.756Z,15.50
2023-01-30T06:45:14.991Z,17.47
2023-01-30T06:47:52.643Z,18.43
2023-01-30T06:50:21.218Z,17.23
2023-01-30T06:52:50.193Z,18.33
2023-01-30T06:55:20.317Z,17.90
2023-01-30T06:57:48.007Z,16.73
2023-01-30T07:00:17.952Z,16.37
2023-01-30T07:02:45.858Z,14.73
2023-01-30T07:05:13.350Z,17.70
2023-01-30T07:07:40.624Z,18.90
2023-01-30T07:10:09.396Z,15.43
2023-01-30T07:12:37.149Z,18.13
2023-01-30T07:15:05.716Z,18.60
2023-01-30T07:17:33.296Z,17.77
2023-01-30T07:20:00.728Z,18.83
2023-01-30T07:22:28.172Z,17.13
2023-01-30T07:24:55.792Z,16.37
2023-01-30T07:27:23.142Z,18.77
2023-01-30T07:29:51.878Z,16.53
2023-01-30T07:32:20.309Z,18.13
2023-01-30T07:34:48.161Z,17.33
2023-01-30T07:37:15.884Z,18.80
2023-01-30T07:39:43.523Z,16.80
2023-01-30T07:42:10.933Z,18.73
2023-01-30T07:44:38.413Z,18.13
2023-01-30T07:47:05.892Z,18.13
2023-01-30T07:49:33.211Z,14.73
2023-01-30T07:52:00.792Z,17.93
2023-01-30T07:54:28.185Z,17.13
2023-01-30T07:56:55.519Z,17.60
2023-01-30T07:59:23.074Z,15.27
2023-01-30T08:01:50.397Z,15.67
2023-01-30T08:04:17.875Z,18.00
2023-01-30T08:06:45.225Z,17.67
2023-01-30T08:09:12.566Z,17.03
2023-01-30T08:11:40.259Z,17.33
2023-01-30T08:14:07.590Z,17.93
2023-01-30T08:16:34.975Z,16.80
2023-01-30T08:19:04.409Z,17.20
2023-01-30T08:21:31.763Z,17.20
2023-01-30T08:24:01.020Z,16.50
2023-01-30T08:26:29.148Z,16.87
2023-01-30T08:28:56.718Z,16.97
2023-01-30T08:31:24.081Z,17.17
2023-01-30T08:33:51.547Z,16.73
2023-01-30T08:36:18.894Z,17.33
2023-01-30T08:38:46.192Z,16.67
2023-01-30T08:41:13.686Z,16.57
2023-01-30T08:43:41.051Z,17.70
2023-01-30T08:46:08.763Z,13.20
2023-01-30T08:48:49.155Z,14.60
2023-01-30T08:51:17.562Z,14.70
2023-01-30T08:53:44.894Z,14.00
2023-01-30T08:56:12.339Z,15.63
2023-01-30T08:58:39.836Z,15.47
2023-01-30T09:01:07.970Z,14.63
2023-01-30T09:03:35.767Z,16.67
2023-01-30T09:06:03.360Z,16.10
2023-01-30T09:08:30.648Z,13.43
2023-01-30T09:11:01.753Z,13.60
2023-01-30T09:13:29.231Z,15.30
2023-01-30T09:15:56.904Z,16.00
2023-01-30T09:18:24.823Z,15.30
2023-01-30T09:20:52.892Z,15.80
2023-01-30T09:23:21.213Z,14.77
2023-01-30T09:25:48.628Z,14.43
2023-01-30T09:28:15.936Z,15.83
2023-01-30T09:30:43.466Z,12.97
2023-01-30T09:33:10.967Z,15.40
2023-01-30T09:35:38.382Z,15.60
2023-01-30T09:38:06.055Z,15.03
2023-01-30T09:40:33.597Z,20.07
2023-01-30T09:43:25.348Z,15.90
2023-01-30T09:46:01.693Z,15.27
2023-01-30T09:48:45.005Z,16.73
2023-01-30T09:51:33.630Z,14.60
2023-01-30T09:54:36.515Z,16.40
2023-01-30T09:57:23.786Z,13.93
2023-01-30T10:00:02.946Z,15.20
2023-01-30T10:02:47.916Z,14.73
2023-01-30T10:05:15.600Z,15.03
2023-01-30T10:07:49.842Z,16.90
2023-01-30T10:11:00.829Z,11.17
2023-01-30T10:13:44.110Z,15.13
2023-01-30T10:16:25.822Z,14.87
2023-01-30T10:19:34.911Z,12.97
2023-01-30T10:22:20.043Z,14.17
2023-01-30T10:25:13.130Z,14.67
2023-01-30T10:27:47.094Z,14.63
2023-01-30T10:30:15.139Z,14.13
2023-01-30T10:33:04.426Z,14.83
2023-01-30T10:35:39.674Z,12.50
2023-01-30T10:38:21.396Z,14.93
2023-01-30T10:41:17.646Z,12.80
2023-01-30T10:43:48.649Z,13.20
2023-01-30T10:46:40.866Z,12.43
2023-01-30T10:49:15.998Z,12.03
2023-01-30T10:52:01.851Z,13.87
2023-01-30T10:54:55.211Z,12.27
2023-01-30T10:57:35.275Z,11.23
2023-01-30T11:00:25.490Z,11.70
2023-01-30T11:03:17.652Z,11.47
2023-01-30T11:05:53.358Z,12.37
2023-01-30T11:08:23.359Z,11.47
2023-01-30T11:10:51.292Z,12.40
2023-01-30T11:13:20.723Z,11.47
2023-01-30T11:15:50.487Z,12.63
2023-01-30T11:19:17.548Z,11.97
2023-01-30T11:21:08.142Z,12.23
2023-01-30T11:23:40.209Z,11.10
2023-01-30T11:26:11.708Z,12.80
2023-01-30T11:28:43.862Z,12.57
2023-01-30T11:31:40.880Z,12.07
2023-01-30T11:34:20.214Z,11.57
2023-01-30T11:36:47.632Z,12.80
2023-01-30T11:39:16.222Z,12.97
2023-01-30T11:42:05.230Z,12.17
2023-01-30T11:44:37.028Z,10.67
2023-01-30T11:47:25.787Z,12.20
2023-01-30T11:50:04.658Z,12.03
2023-01-30T11:52:44.610Z,11.87
2023-01-30T11:55:14.632Z,12.00
2023-01-30T11:57:45.910Z,11.83
2023-01-30T12:00:40.520Z,12.33
2023-01-30T12:03:12.229Z,13.77
2023-01-30T12:05:43.265Z,19.47
2023-01-30T12:08:40.519Z,15.83
2023-01-30T12:11:28.478Z,15.20
2023-01-30T12:14:14.116Z,13.57
2023-01-30T12:17:08.336Z,13.33
2023-01-30T12:19:53.560Z,12.93
2023-01-30T12:22:23.725Z,13.43
2023-01-30T12:25:19.176Z,12.63
2023-01-30T12:28:10.095Z,12.43
2023-01-30T12:30:57.894Z,10.97
2023-01-30T12:33:29.555Z,11.80
2023-01-30T12:36:24.273Z,11.80
2023-01-30T12:39:16.981Z,11.23
2023-01-30T12:41:55.610Z,10.73
2023-01-30T12:44:35.598Z,10.40
2023-01-30T12:47:25.008Z,9.63
2023-01-30T12:50:21.701Z,9.93
2023-01-30T12:53:26.397Z,10.83
2023-01-30T12:56:26.360Z,9.07
2023-01-30T12:59:11.766Z,9.67
2023-01-30T13:02:10.008Z,8.67
2023-01-30T13:04:56.471Z,7.90
2023-01-30T13:07:54.789Z,7.90
2023-01-30T13:10:25.605Z,7.23
2023-01-30T13:13:30.746Z,7.47
2023-01-30T13:16:11.243Z,7.70
2023-01-30T13:18:49.672Z,8.33
2023-01-30T13:21:23.671Z,7.90
2023-01-30T13:23:59.984Z,7.80
2023-01-30T13:26:37.371Z,7.93
2023-01-30T13:29:37.680Z,6.07
2023-01-30T13:32:18.309Z,6.67
2023-01-30T13:34:46.495Z,7.50
2023-01-30T13:37:20.450Z,8.30
2023-01-30T13:39:55.916Z,8.03
2023-01-30T13:42:50.222Z,8.13
2023-01-30T13:45:27.343Z,6.97
2023-01-30T13:48:19.817Z,8.40
2023-01-30T13:51:18.360Z,7.23
2023-01-30T13:54:09.603Z,9.13
2023-01-30T13:56:42.840Z,9.70
2023-01-30T13:59:25.874Z,7.90
2023-01-30T14:02:07.377Z,8.23
2023-01-30T14:04:48.761Z,8.97
2023-01-30T14:07:23.415Z,8.70
2023-01-30T14:10:07.649Z,8.93
2023-01-30T14:12:42.373Z,7.97
2023-01-30T14:15:16.786Z,9.30
2023-01-30T14:18:01.114Z,8.93
2023-01-30T14:20:30.400Z,11.47
2023-01-30T14:23:19.938Z,15.27
2023-01-30T14:25:49.590Z,12.37
2023-01-30T14:28:17.034Z,11.10
2023-01-30T14:30:45.908Z,8.73
2023-01-30T14:33:22.676Z,8.23
2023-01-30T14:36:30.673Z,8.60
2023-01-30T14:39:18.296Z,10.50
2023-01-30T14:41:45.614Z,6.73
2023-01-30T14:44:12.859Z,9.20
2023-01-30T14:46:42.635Z,6.87
2023-01-30T14:49:28.231Z,7.30
2023-01-30T14:51:56.530Z,6.17
2023-01-30T14:54:41.300Z,5.80
2023-01-30T14:57:33.164Z,5.40
2023-01-30T15:00:18.606Z,5.73
2023-01-30T15:02:55.353Z,4.73
2023-01-30T15:05:34.573Z,5.03
2023-01-30T15:08:15.625Z,5.60
2023-01-30T15:10:52.210Z,4.93
2023-01-30T15:13:37.520Z,9.43
2023-01-30T15:16:41.183Z,4.37
2023-01-30T15:19:36.849Z,3.97
2023-01-30T15:22:19.577Z,3.93
2023-01-30T15:25:08.933Z,3.87
2023-01-30T15:28:13.794Z,3.37
2023-01-30T15:30:49.672Z,2.80
2023-01-30T15:33:30.128Z,2.87
2023-01-30T15:35:58.585Z,3.20
2023-01-30T15:38:33.629Z,2.80
2023-01-30T15:41:02.506Z,3.20
2023-01-30T15:43:46.347Z,4.87
2023-01-30T15:46:38.545Z,4.30
2023-01-30T15:49:25.312Z,2.33
2023-01-30T15:51:52.729Z,4.70
2023-01-30T15:54:22.403Z,4.57
2023-01-30T15:56:50.100Z,4.57
2023-01-30T15:59:36.403Z,4.90
2023-01-30T16:02:14.952Z,5.20
2023-01-30T16:04:42.694Z,6.20
2023-01-30T16:07:26.655Z,4.77
2023-01-30T16:10:12.904Z,5.00
2023-01-30T16:12:41.276Z,4.47
2023-01-30T16:15:25.661Z,5.00
2023-01-30T16:18:08.379Z,6.00
2023-01-30T16:20:55.243Z,6.03
2023-01-30T16:23:32.504Z,4.80
2023-01-30T16:26:00.054Z,4.60
2023-01-30T16:28:28.422Z,5.53
2023-01-30T16:31:06.328Z,4.97
2023-01-30T16:33:37.068Z,4.13
2023-01-30T16:36:23.095Z,5.93
2023-01-30T16:38:51.408Z,12.70
2023-01-30T16:41:31.933Z,4.93
2023-01-30T16:44:19.953Z,8.10
2023-01-30T16:47:02.402Z,4.93
2023-01-30T16:49:36.069Z,4.73
2023-01-30T16:52:24.901Z,6.33
2023-01-30T16:54:57.010Z,4.63
2023-01-30T16:57:36.847Z,5.23
2023-01-30T17:00:17.512Z,4.70
2023-01-30T17:02:50.441Z,5.77
2023-01-30T17:05:20.422Z,4.60
2023-01-30T17:07:48.198Z,8.90
2023-01-30T17:10:49.562Z,5.90
2023-01-30T17:13:44.601Z,4.57
2023-01-30T17:16:28.189Z,5.37
2023-01-30T17:18:58.998Z,4.70
2023-01-30T17:21:31.770Z,5.77
2023-01-30T17:24:01.455Z,5.50
2023-01-30T17:26:29.001Z,5.23
2023-01-30T17:28:56.344Z,5.67
2023-01-30T17:31:24.020Z,7.13
2023-01-30T17:33:51.473Z,6.67
2023-01-30T17:36:29.341Z,6.83
2023-01-30T17:38:57.557Z,7.30
2023-01-30T17:41:28.723Z,9.33
2023-01-30T17:43:56.355Z,6.93
2023-01-30T17:46:26.337Z,5.83
2023-01-30T17:48:53.764Z,6.70
2023-01-30T17:51:21.342Z,5.27
2023-01-30T17:53:48.811Z,7.73
2023-01-30T17:56:24.135Z,4.77
2023-01-30T17:58:51.502Z,8.80
2023-01-30T18:01:19.335Z,6.20
2023-01-30T18:03:46.828Z,6.47
2023-01-30T18:06:15.015Z,5.90
2023-01-30T18:08:42.793Z,4.67
2023-01-30T18:11:12.400Z,9.07
2023-01-30T18:13:40.306Z,16.63
2023-01-30T18:16:09.988Z,4.50
2023-01-30T18:18:37.399Z,6.80
2023-01-30T18:21:04.704Z,8.20
2023-01-30T18:23:32.476Z,8.47
2023-01-30T18:26:00.000Z,6.93
2023-01-30T18:28:27.280Z,5.90
2023-01-30T18:30:54.762Z,6.97
2023-01-30T18:33:22.290Z,10.10
2023-01-30T18:35:49.793Z,4.87
2023-01-30T18:38:17.030Z,6.00
2023-01-30T18:40:44.395Z,5.00
2023-01-30T18:43:12.136Z,6.50
2023-01-30T18:45:39.601Z,7.07
2023-01-30T18:48:07.145Z,7.00
2023-01-30T18:50:34.490Z,5.93
2023-01-30T18:53:01.981Z,5.53
2023-01-30T18:55:29.748Z,7.47
2023-01-30T18:57:59.904Z,6.07
2023-01-30T19:00:27.612Z,5.30
2023-01-30T19:02:55.113Z,5.47
2023-01-30T19:05:22.616Z,4.90
2023-01-30T19:07:49.964Z,7.13
2023-01-30T19:10:18.125Z,6.60
2023-01-30T19:13:04.287Z,5.87
2023-01-30T19:15:31.766Z,5.97
2023-01-30T19:17:59.655Z,6.47
2023-01-30T19:20:27.257Z,7.07
2023-01-30T19:22:55.351Z,6.83
2023-01-30T19:25:23.751Z,5.00
2023-01-30T19:27:51.454Z,5.80
2023-01-30T19:30:19.494Z,5.80
2023-01-30T19:32:47.023Z,5.37
2023-01-30T19:35:14.578Z,5.57
2023-01-30T19:37:42.021Z,5.97
2023-01-30T19:40:11.385Z,5.80
2023-01-30T19:42:43.808Z,6.50
2023-01-30T19:45:12.190Z,6.23
2023-01-30T19:47:39.697Z,4.97
2023-01-30T19:50:08.158Z,4.77
2023-01-30T19:52:36.893Z,5.37
2023-01-30T19:55:05.729Z,6.80
2023-01-30T19:57:33.325Z,4.60
2023-01-30T20:00:00.630Z,5.33
2023-01-30T20:02:30.019Z,4.80
2023-01-30T20:04:58.763Z,4.40
2023-01-30T20:07:26.283Z,5.17
2023-01-30T20:09:53.837Z,4.83
2023-01-30T20:12:22.174Z,7.90
2023-01-30T20:14:49.652Z,5.33
2023-01-30T20:17:16.932Z,4.27
2023-01-30T20:19:44.828Z,4.80
2023-01-30T20:22:12.213Z,4.10
2023-01-30T20:24:39.483Z,4.80
2023-01-30T20:27:06.768Z,4.33
2023-01-30T20:29:34.959Z,5.20
2023-01-30T20:32:02.511Z,6.13
2023-01-30T20:34:29.965Z,5.40
2023-01-30T20:36:57.544Z,3.70
2023-01-30T20:39:24.881Z,4.70
2023-01-30T20:41:52.404Z,5.77
2023-01-30T20:44:21.452Z,5.60
2023-01-30T20:46:50.240Z,4.90
2023-01-30T20:49:21.881Z,9.00
2023-01-30T20:51:50.858Z,5.53
2023-01-30T20:54:19.118Z,5.53
2023-01-30T20:56:48.537Z,6.50
2023-01-30T20:59:24.684Z,6.63
2023-01-30T21:01:52.683Z,5.73
2023-01-30T21:04:20.606Z,6.67
2023-01-30T21:06:48.090Z,6.33
2023-01-30T21:09:17.629Z,6.07
2023-01-30T21:11:45.671Z,6.23
2023-01-30T21:14:13.563Z,4.97
2023-01-30T21:16:41.055Z,7.17
2023-01-30T21:19:12.854Z,6.90
2023-01-30T21:21:51.100Z,7.03
2023-01-30T21:24:20.845Z,6.47
2023-01-30T21:26:48.547Z,6.43
2023-01-30T21:29:17.744Z,5.70
2023-01-30T21:31:45.527Z,6.97
2023-01-30T21:34:13.296Z,6.00
2023-01-30T21:36:41.102Z,6.17
2023-01-30T21:39:28.456Z,6.67
2023-01-30T21:42:01.927Z,10.93
2023-01-30T21:44:31.055Z,6.30
2023-01-30T21:46:58.527Z,7.77
2023-01-30T21:49:26.533Z,8.33
2023-01-30T21:51:54.050Z,7.03
2023-01-30T21:54:21.742Z,7.60
2023-01-30T21:56:49.359Z,7.70
2023-01-30T21:59:16.816Z,6.20
2023-01-30T22:01:44.302Z,8.80
2023-01-30T22:04:14.321Z,7.33
2023-01-30T22:06:42.199Z,6.93
2023-01-30T22:09:12.218Z,6.20
2023-01-30T22:11:39.815Z,5.73
2023-01-30T22:14:07.260Z,7.37
2023-01-30T22:16:34.717Z,6.73
2023-01-30T22:19:04.179Z,7.30
2023-01-30T22:21:34.500Z,7.37
2023-01-30T22:24:02.734Z,6.43
2023-01-30T22:26:30.362Z,6.50
2023-01-30T22:28:58.862Z,6.20
2023-01-30T22:31:30.058Z,6.07
2023-01-30T22:33:57.585Z,6.03
2023-01-30T22:36:29.822Z,6.60
2023-01-30T22:38:57.213Z,6.97
2023-01-30T22:41:25.914Z,6.93
2023-01-30T22:43:55.689Z,7.37
2023-01-30T22:46:26.817Z,7.70
2023-01-30T22:48:54.873Z,6.90
2023-01-30T22:51:23.705Z,7.20
2023-01-30T22:53:56.457Z,7.17
2023-01-30T22:56:25.656Z,6.67
2023-01-30T22:58:53.085Z,8.73
2023-01-30T23:01:21.282Z,7.23
2023-01-30T23:03:52.409Z,6.47
2023-01-30T23:06:19.833Z,6.90
2023-01-30T23:08:47.939Z,6.93
2023-01-30T23:11:18.574Z,7.73
2023-01-30T23:13:50.285Z,6.80
2023-01-30T23:16:19.113Z,7.33
2023-01-30T23:18:55.707Z,6.93
2023-01-30T23:21:26.985Z,7.43
2023-01-30T23:23:55.781Z,9.50
2023-01-30T23:26:24.676Z,8.87
2023-01-30T23:28:52.462Z,6.57
2023-01-30T23:31:22.214Z,7.00
2023-01-30T23:34:00.135Z,6.10
2023-01-30T23:36:27.764Z,5.83
2023-01-30T23:38:56.849Z,6.57
2023-01-30T23:41:31.787Z,7.47
2023-01-30T23:43:59.522Z,5.93
2023-01-30T23:46:29.319Z,8.07
2023-01-30T23:48:58.072Z,7.17
2023-01-30T23:51:28.302Z,5.90
2023-01-30T23:53:55.815Z,5.83
2023-01-30T23:56:24.028Z,5.90
2023-01-30T23:58:51.456Z,5.97
